KMSO/MSO METAR and TAF weather

Enter ICAO airport designator
Station Type Date Time Source
KMSO METAR 2019/05/23 18:53 UTC NOAA

KMSO 231853Z VRB04KT 10SM OVC090 17/03 A2992 RMK AO2 SLP130 T01720028


Station Type Date Time Source
KMSO Decoded METAR 2019/05/23 18:53 UTC NOAA

MISSOULA INTERNATIONAL AIRPORT , MT, United States (KMSO) 46-55N 114-06W 975M
May 23, 2019 - 02:53 PM EDT / 2019.05.23 1853 UTC
Wind: Variable at 5 MPH (4 KT):0
Visibility: 10 mile(s):0
Sky conditions: overcast
Temperature: 63.0 F (17.2 C)
Dew Point: 37.0 F (2.8 C)
Relative Humidity: 38%
Pressure (altimeter): 29.92 in. Hg (1013 hPa)
ob: KMSO 231853Z VRB04KT 10SM OVC090 17/03 A2992 RMK AO2 SLP130 T01720028
cycle: 19

Station Type Date Time Source
KMSO TAF 2019/05/23 18:22 UTC NOAA

TAF KMSO 231720Z 2318/2418 VRB03KT P6SM FEW080
FM232000 11015KT P6SM BKN100
FM240300 09008KT P6SM SCT100
FM240800 VRB05KT P6SM SCT100

Example: see airport list